Keller, Texas
Current Conditions -  °F | °C
As of 12:53 AM on Saturday 25 Oct 2014 (Local Time) from KAFW Reporting Station
Clear Clear  
Wind Chill: 69°   Ceiling: Unl
Heat Index: 69°   Visibility: 10mi
Dew Point: 59°   Wind: 6mph
Humidity: 70%   Direction: 190°S
Pressure: 30.09"   Gusts: NA
Location:  32.93°N, 97.22°W
Report Text: KAFW 250553Z 19005KT 10SM CLR 21/15 A3009 RMK AO2 SLP178 T02060150 10250 20206 403000156 50002
Loading
Personal Weather Stations






























Interactive Weather Map
Tropical Storm Tracking
New forecast layout! Learn more

10-Day Weather Forecast

Advertisements
Track Severe Weather on mobile